EDT,Max TemperatureF,Mean TemperatureF,Min TemperatureF,Max Dew PointF,MeanDew PointF,Min DewpointF,Max Humidity, Mean Humidity, Min Humidity, Max Sea Level PressureIn, Mean Sea Level PressureIn, Min Sea Level PressureIn, Max VisibilityMiles, Mean VisibilityMiles, Min VisibilityMiles, Max Wind SpeedMPH, Mean Wind SpeedMPH, Max Gust SpeedMPH,PrecipitationIn, CloudCover, Events, WindDirDegrees
2013-10-1,82,68,54,61,57,52,93,74,42,30.13,30.08,30.03,10,10,10,7,2,,0.00,1,,282
2013-10-2,84,68,55,61,58,55,97,81,41,30.14,30.10,30.05,10,6,2,8,1,,0.00,0,,310
2013-10-3,87,72,60,63,60,57,93,71,40,30.15,30.10,30.06,10,10,10,6,1,,0.00,3,,270
2013-10-4,87,72,60,65,62,59,100,78,43,30.15,30.11,30.06,10,7,2,7,1,,0.00,0,,261
2013-10-5,89,76,63,66,63,60,97,72,39,30.12,30.08,30.04,10,9,5,6,1,,0.00,1,,191
2013-10-6,84,73,62,70,65,60,97,83,53,30.09,30.03,29.94,10,7,0,8,1,,0.00,4,Fog,141
2013-10-7,73,68,64,71,67,55,97,91,73,30.01,29.90,29.86,10,6,0,8,5,,1.83,8,Fog-Rain-Thunderstorm,205
2013-10-8,63,60,55,53,48,44,77,65,58,30.22,30.14,30.01,10,10,10,15,9,24,0.05,8,Rain,25
2013-10-9,64,59,54,54,51,48,94,78,70,30.20,30.15,30.11,10,9,3,13,7,23,0.09,7,Rain,355
2013-10-10,61,58,54,59,55,51,94,92,88,30.11,30.02,29.95,10,8,2,10,8,20,0.35,8,Rain,325
2013-10-11,66,63,60,63,59,55,97,88,78,29.99,29.95,29.92,10,9,2,9,5,,0.01,7,Rain,319
2013-10-12,69,64,61,65,62,58,93,90,84,30.10,30.03,29.97,10,9,2,7,3,,0.02,8,Rain,327
2013-10-13,66,64,62,62,61,60,94,91,84,30.22,30.16,30.09,10,9,2,8,5,,0.10,8,Rain,1
2013-10-14,66,60,57,60,59,55,97,90,81,30.26,30.22,30.19,10,8,2,10,6,18,0.06,7,Rain,13
2013-10-15,73,64,54,60,55,52,93,79,55,30.21,30.14,30.07,10,10,9,8,5,,0.00,4,,17
2013-10-16,71,66,61,61,60,59,97,86,71,30.07,30.03,29.97,10,10,10,6,1,,0.00,6,,41
2013-10-17,73,68,62,64,62,59,93,79,64,29.97,29.90,29.86,10,10,10,4,2,,0.00,7,,260
2013-10-18,70,62,55,64,54,45,96,75,45,30.05,29.97,29.89,10,10,7,8,2,,0.00,5,,334
2013-10-19,69,63,57,62,58,54,93,87,75,29.97,29.91,29.84,10,9,3,6,1,,0.02,6,Rain,257
2013-10-20,64,54,43,56,45,38,97,75,40,30.14,30.03,29.92,10,8,1,8,4,,0.00,0,,322
2013-10-21,66,52,39,49,44,37,96,76,40,30.17,30.10,30.01,10,10,9,5,0,,0.00,0,,266
2013-10-22,66,58,52,59,54,49,97,89,70,30.01,29.89,29.81,10,6,0,4,0,,0.00,4,Fog-Rain,240
2013-10-23,66,56,45,58,50,31,97,79,33,30.02,29.78,29.69,10,6,0,14,3,24,0.00,6,Fog,291
2013-10-24,57,45,35,39,33,29,89,63,38,30.19,30.12,30.04,10,10,10,12,5,20,0.00,2,,283
2013-10-25,55,46,37,34,30,25,76,57,31,30.37,30.30,30.19,10,10,10,13,5,20,0.00,2,,321
2013-10-26,59,44,30,36,30,27,89,62,33,30.37,30.23,30.08,10,10,10,7,1,22,0.00,1,,255
2013-10-27,48,47,46,38,36,34,71,63,56,30.07,30.07,30.06,10,10,10,5,2,,0.00,5,,265
2013-10-28,68,56,45,54,49,43,93,80,49,30.27,30.23,30.14,10,10,8,5,0,,0.00,6,,205
2013-10-29,73,62,52,56,53,51,97,81,51,30.34,30.29,30.25,10,8,4,6,1,,0.00,4,,311
2013-10-30,73,62,52,59,54,51,97,88,55,30.30,30.26,30.17,10,5,0,5,0,,0.00,3,Fog,-1
2013-10-31,73,64,55,61,56,54,100,77,55,30.19,30.10,29.93,10,8,2,6,1,,0.00,1,,0